createdAt,value
2023-05-23T00:00:43.349Z,17.95
2023-05-23T00:01:43.652Z,18.10
2023-05-23T00:02:43.442Z,18.07
2023-05-23T00:03:43.475Z,18.11
2023-05-23T00:04:43.333Z,18.13
2023-05-23T00:05:43.328Z,18.01
2023-05-23T00:06:43.324Z,18.10
2023-05-23T00:07:43.323Z,18.04
2023-05-23T00:08:43.331Z,18.05
2023-05-23T00:09:43.320Z,18.10
2023-05-23T00:10:43.310Z,18.01
2023-05-23T00:11:43.314Z,18.07
2023-05-23T00:12:43.303Z,18.07
2023-05-23T00:13:43.394Z,18.07
2023-05-23T00:14:43.299Z,18.05
2023-05-23T00:15:43.304Z,18.03
2023-05-23T00:16:43.305Z,18.04
2023-05-23T00:17:43.331Z,18.01
2023-05-23T00:18:43.343Z,18.04
2023-05-23T00:19:43.281Z,18.01
2023-05-23T00:20:43.379Z,18.01
2023-05-23T00:21:43.282Z,18.05
2023-05-23T00:22:43.415Z,17.98
2023-05-23T00:23:43.268Z,18.00
2023-05-23T00:24:43.264Z,17.98
2023-05-23T00:25:43.326Z,17.97
2023-05-23T00:26:43.262Z,17.94
2023-05-23T00:27:43.284Z,17.90
2023-05-23T00:28:43.248Z,17.92
2023-05-23T00:29:43.334Z,17.86
2023-05-23T00:30:43.310Z,17.85
2023-05-23T00:31:43.269Z,17.92
2023-05-23T00:32:43.268Z,17.82
2023-05-23T00:33:43.271Z,17.83
2023-05-23T00:34:43.229Z,17.86
2023-05-23T00:35:43.227Z,17.90
2023-05-23T00:36:43.217Z,17.78
2023-05-23T00:37:43.225Z,17.78
2023-05-23T00:38:43.243Z,17.67
2023-05-23T00:39:43.206Z,17.74
2023-05-23T00:40:43.208Z,17.63
2023-05-23T00:41:43.202Z,17.60
2023-05-23T00:42:43.200Z,17.71
2023-05-23T00:43:43.197Z,17.71
2023-05-23T00:44:43.192Z,17.64
2023-05-23T00:45:43.360Z,17.56
2023-05-23T00:46:43.218Z,17.60
2023-05-23T00:47:43.196Z,17.67
2023-05-23T00:48:43.180Z,17.76
2023-05-23T00:49:43.173Z,17.72
2023-05-23T00:50:43.177Z,17.63
2023-05-23T00:51:43.218Z,17.64
2023-05-23T00:52:43.161Z,17.65
2023-05-23T00:53:43.158Z,17.68
2023-05-23T00:54:43.157Z,17.65
2023-05-23T00:55:43.330Z,17.72
2023-05-23T00:56:43.147Z,17.60
2023-05-23T00:57:43.146Z,17.67
2023-05-23T00:58:43.138Z,17.64
2023-05-23T00:59:43.135Z,17.60
2023-05-23T01:00:43.136Z,17.70
2023-05-23T01:01:43.343Z,17.63
2023-05-23T01:02:43.177Z,17.64
2023-05-23T01:03:43.204Z,17.65
2023-05-23T01:04:43.119Z,17.63
2023-05-23T01:05:43.248Z,17.54
2023-05-23T01:06:43.103Z,17.63
2023-05-23T01:07:43.099Z,17.67
2023-05-23T01:08:43.107Z,17.59
2023-05-23T01:09:43.090Z,17.64
2023-05-23T01:10:43.087Z,17.63
2023-05-23T01:11:43.085Z,17.63
2023-05-23T01:12:43.078Z,17.63
2023-05-23T01:13:43.081Z,17.60
2023-05-23T01:14:43.073Z,17.60
2023-05-23T01:15:43.279Z,17.57
2023-05-23T01:16:43.102Z,17.67
2023-05-23T01:17:43.159Z,17.63
2023-05-23T01:18:43.056Z,17.59
2023-05-23T01:19:43.063Z,17.63
2023-05-23T01:20:43.053Z,17.56
2023-05-23T01:21:43.065Z,17.67
2023-05-23T01:22:43.044Z,17.60
2023-05-23T01:23:43.032Z,17.57
2023-05-23T01:24:43.028Z,17.65
2023-05-23T01:25:43.072Z,17.63
2023-05-23T01:26:43.021Z,17.60
2023-05-23T01:27:43.061Z,17.54
2023-05-23T01:28:43.013Z,17.56
2023-05-23T01:29:43.010Z,17.60
2023-05-23T01:30:43.004Z,17.60
2023-05-23T01:31:43.050Z,17.57
2023-05-23T01:32:43.059Z,17.57
2023-05-23T01:33:42.997Z,17.56
2023-05-23T01:34:42.994Z,17.60
2023-05-23T01:35:42.991Z,17.54
2023-05-23T01:36:43.034Z,17.56
2023-05-23T01:37:42.980Z,17.39
2023-05-23T01:38:43.064Z,17.44
2023-05-23T01:39:42.975Z,17.38
2023-05-23T01:40:42.966Z,17.41
2023-05-23T01:41:42.963Z,17.46
2023-05-23T01:42:42.958Z,17.48
2023-05-23T01:43:42.956Z,17.38
2023-05-23T01:44:42.972Z,17.36
2023-05-23T01:45:43.110Z,17.33
2023-05-23T01:46:42.945Z,17.26
2023-05-23T01:47:42.959Z,17.19
2023-05-23T01:48:42.936Z,17.14
2023-05-23T01:49:43.018Z,17.12
2023-05-23T01:50:42.934Z,17.14
2023-05-23T01:51:42.942Z,17.20
2023-05-23T01:52:42.923Z,17.09
2023-05-23T01:53:42.919Z,17.08
2023-05-23T01:54:42.919Z,17.14
2023-05-23T01:55:42.918Z,16.99
2023-05-23T01:56:42.909Z,17.04
2023-05-23T01:57:42.915Z,17.01
2023-05-23T01:58:42.897Z,16.94
2023-05-23T01:59:42.901Z,17.02
2023-05-23T02:00:42.889Z,16.93
2023-05-23T02:01:42.916Z,16.79
2023-05-23T02:02:42.946Z,16.91
2023-05-23T02:03:42.963Z,16.94
2023-05-23T02:04:42.880Z,16.94
2023-05-23T02:05:43.372Z,16.97
2023-05-23T02:06:42.881Z,16.90
2023-05-23T02:07:42.858Z,16.90
2023-05-23T02:08:42.861Z,16.94
2023-05-23T02:09:42.860Z,16.90
2023-05-23T02:10:42.870Z,16.93
2023-05-23T02:11:42.874Z,16.93
2023-05-23T02:12:42.846Z,16.94
2023-05-23T02:13:42.848Z,16.84
2023-05-23T02:14:42.835Z,16.90
2023-05-23T02:15:42.974Z,16.87
2023-05-23T02:16:42.879Z,16.84
2023-05-23T02:17:42.885Z,16.87
2023-05-23T02:18:42.834Z,16.79
2023-05-23T02:19:42.818Z,16.71
2023-05-23T02:20:42.836Z,16.79
2023-05-23T02:21:42.903Z,16.79
2023-05-23T02:22:42.802Z,16.84
2023-05-23T02:23:42.812Z,16.75
2023-05-23T02:24:42.799Z,16.74
2023-05-23T02:25:43.089Z,16.76
2023-05-23T02:26:42.793Z,16.83
2023-05-23T02:27:42.784Z,16.79
2023-05-23T02:28:42.779Z,16.79
2023-05-23T02:29:42.786Z,16.76
2023-05-23T02:30:42.771Z,16.83
2023-05-23T02:31:42.874Z,16.78
2023-05-23T02:32:42.821Z,16.81
2023-05-23T02:33:42.765Z,16.79
2023-05-23T02:34:42.767Z,16.71
2023-05-23T02:35:42.948Z,16.66
2023-05-23T02:36:42.744Z,16.66
2023-05-23T02:37:42.850Z,16.60
2023-05-23T02:38:42.745Z,16.66
2023-05-23T02:39:42.740Z,16.53
2023-05-23T02:40:42.735Z,16.58
2023-05-23T02:41:42.730Z,16.56
2023-05-23T02:42:42.752Z,16.54
2023-05-23T02:43:43.465Z,16.60
2023-05-23T02:44:42.714Z,16.56
2023-05-23T02:45:43.127Z,16.54
2023-05-23T02:46:42.853Z,16.64
2023-05-23T02:47:42.756Z,16.64
2023-05-23T02:48:42.713Z,16.54
2023-05-23T02:49:42.703Z,16.50
2023-05-23T02:50:42.695Z,16.58
2023-05-23T02:51:42.697Z,16.58
2023-05-23T02:52:42.690Z,16.58
2023-05-23T02:53:42.787Z,16.58
2023-05-23T02:54:42.678Z,16.58
2023-05-23T02:55:42.912Z,16.53
2023-05-23T02:56:42.672Z,16.58
2023-05-23T02:57:42.669Z,16.46
2023-05-23T02:58:42.661Z,16.53
2023-05-23T02:59:42.678Z,16.57
2023-05-23T03:00:42.652Z,16.49
2023-05-23T03:01:42.712Z,16.53
2023-05-23T03:02:42.710Z,16.53
2023-05-23T03:03:42.794Z,16.53
2023-05-23T03:04:42.667Z,16.57
2023-05-23T03:05:42.899Z,16.57
2023-05-23T03:06:42.636Z,16.61
2023-05-23T03:07:42.696Z,16.54
2023-05-23T03:08:42.638Z,16.58
2023-05-23T03:09:42.764Z,16.60
2023-05-23T03:10:42.645Z,16.54
2023-05-23T03:11:42.649Z,16.47
2023-05-23T03:12:42.665Z,16.51
2023-05-23T03:13:42.615Z,16.39
2023-05-23T03:14:42.612Z,16.42
2023-05-23T03:15:42.731Z,16.43
2023-05-23T03:16:42.732Z,16.49
2023-05-23T03:17:42.782Z,16.47
2023-05-23T03:18:42.618Z,16.46
2023-05-23T03:19:42.669Z,16.47
2023-05-23T03:20:42.595Z,16.47
2023-05-23T03:21:42.592Z,16.51
2023-05-23T03:22:42.586Z,16.50
2023-05-23T03:23:42.581Z,16.54
2023-05-23T03:24:42.569Z,16.43
2023-05-23T03:25:42.800Z,16.50
2023-05-23T03:26:42.561Z,16.51
2023-05-23T03:27:42.594Z,16.53
2023-05-23T03:28:42.554Z,16.49
2023-05-23T03:29:42.554Z,16.50
2023-05-23T03:30:42.543Z,16.46
2023-05-23T03:31:42.602Z,16.60
2023-05-23T03:32:42.618Z,16.53
2023-05-23T03:33:42.531Z,16.60
2023-05-23T03:34:42.534Z,16.54
2023-05-23T03:35:42.734Z,16.53
2023-05-23T03:36:42.519Z,16.57
2023-05-23T03:37:42.533Z,16.53
2023-05-23T03:38:42.510Z,16.53
2023-05-23T03:39:42.509Z,16.64
2023-05-23T03:40:42.506Z,16.58
2023-05-23T03:41:42.600Z,16.54
2023-05-23T03:42:42.498Z,16.58
2023-05-23T03:43:42.488Z,16.64
2023-05-23T03:44:42.484Z,16.58
2023-05-23T03:45:42.670Z,16.57
2023-05-23T03:46:42.545Z,16.64
2023-05-23T03:47:42.506Z,16.57
2023-05-23T03:48:42.468Z,16.57
2023-05-23T03:49:42.466Z,16.58
2023-05-23T03:50:42.461Z,16.57
2023-05-23T03:51:42.453Z,16.61
2023-05-23T03:52:42.460Z,16.49
2023-05-23T03:53:42.446Z,16.53
2023-05-23T03:54:42.449Z,16.58
2023-05-23T03:55:42.798Z,16.50
2023-05-23T03:56:42.442Z,16.43
2023-05-23T03:57:42.535Z,16.53
2023-05-23T03:58:42.431Z,16.46
2023-05-23T03:59:42.422Z,16.54
2023-05-23T04:00:42.417Z,16.47
2023-05-23T04:01:42.421Z,16.50
2023-05-23T04:02:42.519Z,16.51
2023-05-23T04:03:42.534Z,16.53
2023-05-23T04:04:42.421Z,16.54
2023-05-23T04:05:42.724Z,16.50
2023-05-23T04:06:42.400Z,16.50
2023-05-23T04:07:42.394Z,16.33
2023-05-23T04:08:42.387Z,16.38
2023-05-23T04:09:42.388Z,16.46
2023-05-23T04:10:42.382Z,16.49
2023-05-23T04:11:42.371Z,16.47
2023-05-23T04:12:42.377Z,16.51
2023-05-23T04:13:42.366Z,16.46
2023-05-23T04:14:42.358Z,16.49
2023-05-23T04:15:42.577Z,16.50
2023-05-23T04:16:42.449Z,16.54
2023-05-23T04:17:42.423Z,16.47
2023-05-23T04:18:42.341Z,16.47
2023-05-23T04:19:42.446Z,16.43
2023-05-23T04:20:42.332Z,16.50
2023-05-23T04:21:42.323Z,16.51
2023-05-23T04:22:42.335Z,16.49
2023-05-23T04:23:42.303Z,16.49
2023-05-23T04:24:42.306Z,16.51
2023-05-23T04:25:42.488Z,16.49
2023-05-23T04:26:42.289Z,16.46
2023-05-23T04:27:42.295Z,16.47
2023-05-23T04:28:42.282Z,16.50
2023-05-23T04:29:42.364Z,16.49
2023-05-23T04:30:42.270Z,16.51
2023-05-23T04:31:42.286Z,16.51
2023-05-23T04:32:42.291Z,16.49
2023-05-23T04:33:42.261Z,16.53
2023-05-23T04:34:42.261Z,16.53
2023-05-23T04:35:42.348Z,16.49
2023-05-23T04:36:42.251Z,16.49
2023-05-23T04:37:42.247Z,16.50
2023-05-23T04:38:42.239Z,16.54
2023-05-23T04:39:42.334Z,16.57
2023-05-23T04:40:42.236Z,16.46
2023-05-23T04:41:42.228Z,16.50
2023-05-23T04:42:42.223Z,16.43
2023-05-23T04:43:42.211Z,16.47
2023-05-23T04:44:42.215Z,16.61
2023-05-23T04:45:42.624Z,16.57
2023-05-23T04:46:42.543Z,16.57
2023-05-23T04:47:42.251Z,16.57
2023-05-23T04:48:42.213Z,16.60
2023-05-23T04:49:42.200Z,16.61
2023-05-23T04:50:42.191Z,16.64
2023-05-23T04:51:42.188Z,16.64
2023-05-23T04:52:42.181Z,16.64
2023-05-23T04:53:42.210Z,16.56
2023-05-23T04:54:42.173Z,16.57
2023-05-23T04:55:42.426Z,16.60
2023-05-23T04:56:42.162Z,16.56
2023-05-23T04:57:42.160Z,16.50
2023-05-23T04:58:42.206Z,16.51
2023-05-23T04:59:42.152Z,16.54
2023-05-23T05:00:42.375Z,16.56
2023-05-23T05:01:42.316Z,16.58
2023-05-23T05:02:42.185Z,16.68
2023-05-23T05:03:42.149Z,16.64
2023-05-23T05:04:42.125Z,16.58
2023-05-23T05:05:42.129Z,16.66
2023-05-23T05:06:42.119Z,16.64
2023-05-23T05:07:42.114Z,16.60
2023-05-23T05:08:42.118Z,16.64
2023-05-23T05:09:42.104Z,16.60
2023-05-23T05:10:42.339Z,16.69
2023-05-23T05:11:42.098Z,16.65
2023-05-23T05:12:42.093Z,16.66
2023-05-23T05:13:42.089Z,16.65
2023-05-23T05:14:42.083Z,16.58
2023-05-23T05:15:42.080Z,16.65
2023-05-23T05:16:42.092Z,16.69
2023-05-23T05:17:42.243Z,16.65
2023-05-23T05:18:42.065Z,16.69
2023-05-23T05:19:42.062Z,16.71
2023-05-23T05:20:42.224Z,16.56
2023-05-23T05:21:42.058Z,16.74
2023-05-23T05:22:42.054Z,16.66
2023-05-23T05:23:42.062Z,16.74
2023-05-23T05:24:42.041Z,16.71
2023-05-23T05:25:42.036Z,16.76
2023-05-23T05:26:42.047Z,16.64
2023-05-23T05:27:42.025Z,16.68
2023-05-23T05:28:42.023Z,16.64
2023-05-23T05:29:42.029Z,16.68
2023-05-23T05:30:42.224Z,16.57
2023-05-23T05:31:42.034Z,16.65
2023-05-23T05:32:42.026Z,16.71
2023-05-23T05:33:42.089Z,16.74
2023-05-23T05:34:41.998Z,16.58
2023-05-23T05:35:41.993Z,16.64
2023-05-23T05:36:41.992Z,16.64
2023-05-23T05:37:41.990Z,16.66
2023-05-23T05:38:41.999Z,16.65
2023-05-23T05:39:41.982Z,16.69
2023-05-23T05:40:42.136Z,16.75
2023-05-23T05:41:41.967Z,16.75
2023-05-23T05:42:41.964Z,16.74
2023-05-23T05:43:41.974Z,16.83
2023-05-23T05:44:42.013Z,16.75
2023-05-23T05:45:41.953Z,16.75
2023-05-23T05:46:41.977Z,16.72
2023-05-23T05:47:42.003Z,16.84
2023-05-23T05:48:41.939Z,16.84
2023-05-23T05:49:42.024Z,16.84
2023-05-23T05:50:42.117Z,16.84
2023-05-23T05:51:41.930Z,16.89
2023-05-23T05:52:41.924Z,16.78
2023-05-23T05:53:41.923Z,16.87
2023-05-23T05:54:41.916Z,16.90
2023-05-23T05:55:41.910Z,16.96
2023-05-23T05:56:41.908Z,16.97
2023-05-23T05:57:41.903Z,16.93
2023-05-23T05:58:41.899Z,16.87
2023-05-23T05:59:41.920Z,16.93
2023-05-23T06:00:42.168Z,16.93
2023-05-23T06:01:41.890Z,16.97
2023-05-23T06:02:41.967Z,16.99
2023-05-23T06:03:42.050Z,17.01
2023-05-23T06:04:41.918Z,16.89
2023-05-23T06:05:41.959Z,17.02
2023-05-23T06:06:41.886Z,16.97
2023-05-23T06:07:41.893Z,17.09
2023-05-23T06:08:41.859Z,17.04
2023-05-23T06:09:41.863Z,17.11
2023-05-23T06:10:42.267Z,17.11
2023-05-23T06:11:41.849Z,17.23
2023-05-23T06:12:41.839Z,17.19
2023-05-23T06:13:41.841Z,17.27
2023-05-23T06:14:41.834Z,17.15
2023-05-23T06:15:41.837Z,17.24
2023-05-23T06:16:41.864Z,17.15
2023-05-23T06:17:41.893Z,17.26
2023-05-23T06:18:41.821Z,17.23
2023-05-23T06:19:41.812Z,17.22
2023-05-23T06:20:41.982Z,17.24
2023-05-23T06:21:41.943Z,17.19
2023-05-23T06:22:41.809Z,17.15
2023-05-23T06:23:41.806Z,17.19
2023-05-23T06:24:41.806Z,17.19
2023-05-23T06:25:41.801Z,17.14
2023-05-23T06:26:41.787Z,17.24
2023-05-23T06:27:41.783Z,17.19
2023-05-23T06:28:41.802Z,17.22
2023-05-23T06:29:41.779Z,17.19
2023-05-23T06:30:42.075Z,17.31
2023-05-23T06:31:41.813Z,17.27
2023-05-23T06:32:41.784Z,17.33
2023-05-23T06:33:41.761Z,17.38
2023-05-23T06:34:41.759Z,17.36
2023-05-23T06:35:41.752Z,17.36
2023-05-23T06:36:41.748Z,17.46
2023-05-23T06:37:41.806Z,17.45
2023-05-23T06:38:41.759Z,17.42
2023-05-23T06:39:41.741Z,17.44
2023-05-23T06:40:41.918Z,17.33
2023-05-23T06:41:41.727Z,17.42
2023-05-23T06:42:41.757Z,17.44
2023-05-23T06:43:41.716Z,17.52
2023-05-23T06:44:41.718Z,17.49
2023-05-23T06:45:41.727Z,17.45
2023-05-23T06:46:41.706Z,17.64
2023-05-23T06:47:41.756Z,17.70
2023-05-23T06:48:41.700Z,17.72
2023-05-23T06:49:41.697Z,17.87
2023-05-23T06:50:42.070Z,17.90
2023-05-23T06:51:41.818Z,17.97
2023-05-23T06:52:41.684Z,18.07
2023-05-23T06:53:41.766Z,18.15
2023-05-23T06:54:41.676Z,18.18
2023-05-23T06:55:41.673Z,18.35
2023-05-23T06:56:41.676Z,18.65
2023-05-23T06:57:41.668Z,18.92
2023-05-23T06:58:41.665Z,19.33
2023-05-23T06:59:41.656Z,19.67
2023-05-23T07:00:42.025Z,19.81
2023-05-23T07:01:41.673Z,20.19
2023-05-23T07:02:41.720Z,20.40
2023-05-23T07:03:41.647Z,20.50
2023-05-23T07:04:41.649Z,20.69
2023-05-23T07:05:41.725Z,20.81
2023-05-23T07:06:41.639Z,20.80
2023-05-23T07:07:41.636Z,20.90
2023-05-23T07:08:41.631Z,20.85
2023-05-23T07:09:41.661Z,20.88
2023-05-23T07:10:42.143Z,20.90
2023-05-23T07:11:41.625Z,20.80
2023-05-23T07:12:41.620Z,20.80
2023-05-23T07:13:41.621Z,20.72
2023-05-23T07:14:41.619Z,20.74
2023-05-23T07:15:41.623Z,20.66
2023-05-23T07:16:41.673Z,20.60
2023-05-23T07:17:41.675Z,20.51
2023-05-23T07:18:41.609Z,20.52
2023-05-23T07:19:41.636Z,20.31
2023-05-23T07:20:41.922Z,20.31
2023-05-23T07:21:41.601Z,20.36
2023-05-23T07:22:41.603Z,20.29
2023-05-23T07:23:41.595Z,20.11
2023-05-23T07:24:41.596Z,20.26
2023-05-23T07:25:47.075Z,20.18
2023-05-23T07:26:41.597Z,20.10
2023-05-23T07:27:41.592Z,20.06
2023-05-23T07:28:41.584Z,19.96
2023-05-23T07:29:41.589Z,20.00
2023-05-23T07:30:41.697Z,20.00
2023-05-23T07:31:41.679Z,19.91
2023-05-23T07:32:41.587Z,19.84
2023-05-23T07:33:41.577Z,19.86
2023-05-23T07:34:41.579Z,19.82
2023-05-23T07:35:41.567Z,20.03
2023-05-23T07:36:41.564Z,19.95
2023-05-23T07:37:41.571Z,19.94
2023-05-23T07:38:41.568Z,19.91
2023-05-23T07:39:41.562Z,20.18
2023-05-23T07:40:41.762Z,20.28
2023-05-23T07:41:41.560Z,20.26
2023-05-23T07:42:41.554Z,20.18
2023-05-23T07:43:41.688Z,20.21
2023-05-23T07:44:41.552Z,20.25
2023-05-23T07:45:41.548Z,20.31
2023-05-23T07:46:41.598Z,20.31
2023-05-23T07:47:41.549Z,20.50
2023-05-23T07:48:41.547Z,20.74
2023-05-23T07:49:41.537Z,20.85
2023-05-23T07:50:41.681Z,20.99
2023-05-23T07:51:41.534Z,20.96
2023-05-23T07:52:41.544Z,21.00
2023-05-23T07:53:41.538Z,21.22
2023-05-23T07:54:41.533Z,21.48
2023-05-23T07:55:41.530Z,22.26
2023-05-23T07:56:41.532Z,23.23
2023-05-23T07:57:41.526Z,23.61
2023-05-23T07:58:41.522Z,24.02
2023-05-23T07:59:41.533Z,24.39
2023-05-23T08:00:41.699Z,24.73
2023-05-23T08:01:41.553Z,25.14
2023-05-23T08:02:41.589Z,25.26
2023-05-23T08:03:41.520Z,25.29
2023-05-23T08:04:41.676Z,25.14
2023-05-23T08:05:41.530Z,25.01
2023-05-23T08:06:51.957Z,25.28
2023-05-23T08:07:41.524Z,25.36
2023-05-23T08:08:41.521Z,25.43
2023-05-23T08:09:41.534Z,25.08
2023-05-23T08:10:41.770Z,24.60
2023-05-23T08:11:41.524Z,24.23
2023-05-23T08:12:41.524Z,23.87
2023-05-23T08:13:41.524Z,24.11
2023-05-23T08:14:50.578Z,23.99
2023-05-23T08:15:41.538Z,24.32
2023-05-23T08:16:41.596Z,24.98
2023-05-23T08:17:41.617Z,25.58
2023-05-23T08:18:41.576Z,26.45
2023-05-23T08:19:41.549Z,26.71
2023-05-23T08:20:41.823Z,26.71
2023-05-23T08:21:41.541Z,26.19
2023-05-23T08:22:41.534Z,25.60
2023-05-23T08:23:41.558Z,25.03
2023-05-23T08:24:41.535Z,24.92
2023-05-23T08:25:41.538Z,24.96
2023-05-23T08:26:41.533Z,24.99
2023-05-23T08:27:41.539Z,24.53
2023-05-23T08:28:41.541Z,24.45
2023-05-23T08:29:41.538Z,24.50
2023-05-23T08:30:41.721Z,24.48
2023-05-23T08:31:41.571Z,24.50
2023-05-23T08:32:41.540Z,24.30
2023-05-23T08:33:41.542Z,23.98
2023-05-23T08:34:41.556Z,23.48
2023-05-23T08:35:41.538Z,23.03
2023-05-23T08:36:41.536Z,23.02
2023-05-23T08:37:41.539Z,22.80
2023-05-23T08:38:41.546Z,22.54
2023-05-23T08:39:41.533Z,22.76
2023-05-23T08:40:41.707Z,22.78
2023-05-23T08:41:41.539Z,22.70
2023-05-23T08:42:41.638Z,22.83
2023-05-23T08:43:41.537Z,22.70
2023-05-23T08:44:41.534Z,22.50
2023-05-23T08:45:41.538Z,22.36
2023-05-23T08:46:41.547Z,22.43
2023-05-23T08:47:41.561Z,22.45
2023-05-23T08:48:41.531Z,22.38
2023-05-23T08:49:41.532Z,22.47
2023-05-23T08:50:41.785Z,22.53
2023-05-23T08:51:41.528Z,22.72
2023-05-23T08:52:41.534Z,22.99
2023-05-23T08:53:41.527Z,23.05
2023-05-23T08:54:41.525Z,23.31
2023-05-23T08:55:41.751Z,23.48
2023-05-23T08:56:41.533Z,23.76
2023-05-23T08:57:41.536Z,24.05
2023-05-23T08:58:41.525Z,24.14
2023-05-23T08:59:41.529Z,24.08
2023-05-23T09:00:41.656Z,24.08
2023-05-23T09:01:41.642Z,24.18
2023-05-23T09:02:41.586Z,24.21
2023-05-23T09:03:41.525Z,24.26
2023-05-23T09:04:41.523Z,24.43
2023-05-23T09:05:41.576Z,24.53
2023-05-23T09:06:41.581Z,24.42
2023-05-23T09:07:41.544Z,24.33
2023-05-23T09:08:41.521Z,24.30
2023-05-23T09:09:41.565Z,24.47
2023-05-23T09:10:41.709Z,24.48
2023-05-23T09:11:41.526Z,24.48
2023-05-23T09:12:41.532Z,24.55
2023-05-23T09:13:41.526Z,24.76
2023-05-23T09:14:41.526Z,24.80
2023-05-23T09:15:41.528Z,24.91
2023-05-23T09:16:41.851Z,24.92
2023-05-23T09:17:41.723Z,25.08
2023-05-23T09:18:41.564Z,25.01
2023-05-23T09:19:41.575Z,24.95
2023-05-23T09:20:41.867Z,24.80
2023-05-23T09:21:41.532Z,24.58
2023-05-23T09:22:41.535Z,24.55
2023-05-23T09:23:41.536Z,24.53
2023-05-23T09:24:41.536Z,24.58
2023-05-23T09:25:41.535Z,24.54
2023-05-23T09:26:41.542Z,24.66
2023-05-23T09:27:41.541Z,24.65
2023-05-23T09:28:41.546Z,24.69
2023-05-23T09:29:41.556Z,24.80
2023-05-23T09:30:41.761Z,24.73
2023-05-23T09:31:41.638Z,24.60
2023-05-23T09:32:41.603Z,24.54
2023-05-23T09:33:41.551Z,24.43
2023-05-23T09:34:41.550Z,24.48
2023-05-23T09:35:41.554Z,24.30
2023-05-23T09:36:41.548Z,24.24
2023-05-23T09:37:41.572Z,24.28
2023-05-23T09:38:41.557Z,24.24
2023-05-23T09:39:41.567Z,24.36
2023-05-23T09:40:41.808Z,24.32
2023-05-23T09:41:41.575Z,24.38
2023-05-23T09:42:41.553Z,24.51
2023-05-23T09:43:41.554Z,24.57
2023-05-23T09:44:41.552Z,24.50
2023-05-23T09:45:41.554Z,24.38
2023-05-23T09:46:41.598Z,24.14
2023-05-23T09:47:41.565Z,24.06
2023-05-23T09:48:41.559Z,24.08
2023-05-23T09:49:41.561Z,24.14
2023-05-23T09:50:41.751Z,24.11
2023-05-23T09:51:41.564Z,24.11
2023-05-23T09:52:41.561Z,24.23
2023-05-23T09:53:41.561Z,24.17
2023-05-23T09:54:41.567Z,24.16
2023-05-23T09:55:41.567Z,23.88
2023-05-23T09:56:41.578Z,23.88
2023-05-23T09:57:41.563Z,23.65
2023-05-23T09:58:41.563Z,23.48
2023-05-23T09:59:41.578Z,23.54
2023-05-23T10:00:41.839Z,23.54
2023-05-23T10:01:41.609Z,23.55
2023-05-23T10:02:41.603Z,23.51
2023-05-23T10:03:41.573Z,23.74
2023-05-23T10:04:41.641Z,23.83
2023-05-23T10:05:41.576Z,23.88
2023-05-23T10:06:41.565Z,24.01
2023-05-23T10:07:41.571Z,24.21
2023-05-23T10:08:41.571Z,24.38
2023-05-23T10:09:41.614Z,24.36
2023-05-23T10:10:41.821Z,24.51
2023-05-23T10:11:41.571Z,24.48
2023-05-23T10:12:41.594Z,24.65
2023-05-23T10:13:41.586Z,24.92
2023-05-23T10:14:41.572Z,25.06
2023-05-23T10:15:41.573Z,25.17
2023-05-23T10:16:41.622Z,25.16
2023-05-23T10:17:41.633Z,25.23
2023-05-23T10:18:41.580Z,25.33
2023-05-23T10:19:41.621Z,25.14
2023-05-23T10:20:41.942Z,24.89
2023-05-23T10:21:42.333Z,24.55
2023-05-23T10:22:41.578Z,24.35
2023-05-23T10:23:41.579Z,24.17
2023-05-23T10:24:41.581Z,24.02
2023-05-23T10:25:41.581Z,23.96
2023-05-23T10:26:41.584Z,24.01
2023-05-23T10:27:41.595Z,24.01
2023-05-23T10:28:41.581Z,23.91
2023-05-23T10:29:41.598Z,23.73
2023-05-23T10:30:41.994Z,23.71
2023-05-23T10:31:41.667Z,23.78
2023-05-23T10:32:41.599Z,23.83
2023-05-23T10:33:41.588Z,23.84
2023-05-23T10:34:41.591Z,23.80
2023-05-23T10:35:41.671Z,23.77
2023-05-23T10:36:41.592Z,23.41
2023-05-23T10:37:41.584Z,23.23
2023-05-23T10:38:41.589Z,23.13
2023-05-23T10:39:41.586Z,23.06
2023-05-23T10:40:41.937Z,23.05
2023-05-23T10:41:41.583Z,23.08
2023-05-23T10:42:41.598Z,23.27
2023-05-23T10:43:41.598Z,23.40
2023-05-23T10:44:41.595Z,23.56
2023-05-23T10:45:41.611Z,23.56
2023-05-23T10:46:41.598Z,23.54
2023-05-23T10:47:41.622Z,23.58
2023-05-23T10:48:41.590Z,23.54
2023-05-23T10:49:41.621Z,23.63
2023-05-23T10:50:42.129Z,23.50
2023-05-23T10:51:41.590Z,23.37
2023-05-23T10:52:41.650Z,23.21
2023-05-23T10:53:41.628Z,22.96
2023-05-23T10:54:41.592Z,22.70
2023-05-23T10:55:41.592Z,22.53
2023-05-23T10:56:41.589Z,22.72
2023-05-23T10:57:41.588Z,22.69
2023-05-23T10:58:41.604Z,22.73
2023-05-23T10:59:41.584Z,22.70
2023-05-23T11:00:41.899Z,22.76
2023-05-23T11:01:41.606Z,22.72
2023-05-23T11:02:41.643Z,22.57
2023-05-23T11:03:41.774Z,22.44
2023-05-23T11:04:41.607Z,22.50
2023-05-23T11:05:41.590Z,22.54
2023-05-23T11:06:41.588Z,22.48
2023-05-23T11:07:41.688Z,22.54
2023-05-23T11:08:47.769Z,22.50
2023-05-23T11:09:41.593Z,22.43
2023-05-23T11:10:41.817Z,22.36
2023-05-23T11:11:41.590Z,22.44
2023-05-23T11:12:41.602Z,22.44
2023-05-23T11:13:41.592Z,22.44
2023-05-23T11:14:41.589Z,22.45
2023-05-23T11:15:41.595Z,22.28
2023-05-23T11:16:41.736Z,22.08
2023-05-23T11:17:41.610Z,22.10
2023-05-23T11:18:41.588Z,22.08
2023-05-23T11:19:41.650Z,22.02
2023-05-23T11:20:41.816Z,22.04
2023-05-23T11:21:41.594Z,22.08
2023-05-23T11:22:41.588Z,22.00
2023-05-23T11:23:41.637Z,22.11
2023-05-23T11:24:41.585Z,21.99
2023-05-23T11:25:41.584Z,21.98
2023-05-23T11:26:41.584Z,22.06
2023-05-23T11:27:41.615Z,22.06
2023-05-23T11:28:41.583Z,22.08
2023-05-23T11:29:41.604Z,22.14
2023-05-23T11:30:41.999Z,22.26
2023-05-23T11:31:41.610Z,22.20
2023-05-23T11:32:41.619Z,22.13
2023-05-23T11:33:41.623Z,22.26
2023-05-23T11:34:41.607Z,22.10
2023-05-23T11:35:41.658Z,22.11
2023-05-23T11:36:41.633Z,22.00
2023-05-23T11:37:41.597Z,21.96
2023-05-23T11:38:41.589Z,21.92
2023-05-23T11:39:41.655Z,21.93
2023-05-23T11:40:42.277Z,21.88
2023-05-23T11:41:41.682Z,21.66
2023-05-23T11:42:41.634Z,21.48
2023-05-23T11:43:41.669Z,21.42
2023-05-23T11:44:41.708Z,21.35
2023-05-23T11:45:41.719Z,21.30
2023-05-23T11:46:41.640Z,21.06
2023-05-23T11:47:41.688Z,20.95
2023-05-23T11:48:41.719Z,20.88
2023-05-23T11:49:41.653Z,21.03
2023-05-23T11:50:41.902Z,21.03
2023-05-23T11:51:41.585Z,21.12
2023-05-23T11:52:41.573Z,21.06
2023-05-23T11:53:41.570Z,21.20
2023-05-23T11:54:41.573Z,21.20
2023-05-23T11:55:41.581Z,21.22
2023-05-23T11:56:41.570Z,21.21
2023-05-23T11:57:41.565Z,21.24
2023-05-23T11:58:41.596Z,21.17
2023-05-23T11:59:41.566Z,21.15
2023-05-23T12:00:41.782Z,21.09
2023-05-23T12:01:41.591Z,20.99
2023-05-23T12:02:41.809Z,21.05
2023-05-23T12:03:41.706Z,21.03
2023-05-23T12:04:41.628Z,21.14
2023-05-23T12:05:41.565Z,21.39
2023-05-23T12:06:41.584Z,21.40
2023-05-23T12:07:41.615Z,21.48
2023-05-23T12:08:41.593Z,21.45
2023-05-23T12:09:41.549Z,21.54
2023-05-23T12:10:41.881Z,21.48
2023-05-23T12:11:41.552Z,21.46
2023-05-23T12:12:41.551Z,21.33
2023-05-23T12:13:41.552Z,21.30
2023-05-23T12:14:41.555Z,21.20
2023-05-23T12:15:41.588Z,21.25
2023-05-23T12:16:41.615Z,21.06
2023-05-23T12:17:41.562Z,21.03
2023-05-23T12:18:41.541Z,21.12
2023-05-23T12:19:41.641Z,21.03
2023-05-23T12:20:41.764Z,20.99
2023-05-23T12:21:41.545Z,20.93
2023-05-23T12:22:41.542Z,20.82
2023-05-23T12:23:41.537Z,20.52
2023-05-23T12:24:41.540Z,20.51
2023-05-23T12:25:41.716Z,20.37
2023-05-23T12:26:41.551Z,20.37
2023-05-23T12:27:41.597Z,20.31
2023-05-23T12:28:41.555Z,20.22
2023-05-23T12:29:41.561Z,20.19
2023-05-23T12:30:41.696Z,20.03
2023-05-23T12:31:41.613Z,19.94
2023-05-23T12:32:41.609Z,19.92
2023-05-23T12:33:41.519Z,19.88
2023-05-23T12:34:41.521Z,19.85
2023-05-23T12:35:41.668Z,19.95
2023-05-23T12:36:48.607Z,20.06
2023-05-23T12:37:41.532Z,20.14
2023-05-23T12:38:41.521Z,20.21
2023-05-23T12:39:41.512Z,20.25
2023-05-23T12:40:41.511Z,20.28
2023-05-23T12:41:41.512Z,20.28
2023-05-23T12:42:41.513Z,20.16
2023-05-23T12:43:41.504Z,20.13
2023-05-23T12:44:41.531Z,20.19
2023-05-23T12:45:41.755Z,20.13
2023-05-23T12:46:41.530Z,20.21
2023-05-23T12:47:41.549Z,20.24
2023-05-23T12:48:41.499Z,20.29
2023-05-23T12:49:41.497Z,20.13
2023-05-23T12:50:41.508Z,20.03
2023-05-23T12:51:41.496Z,19.91
2023-05-23T12:52:41.505Z,20.03